Terminal Aerodrome Forecast
Issued by NWS

Home | Current Version | Previous Version | Text Only | Print | Product List | Glossary On
Versions: 1 2 3 4 5 6 7 8 9 10 11 12 13 14
000
FTUS45 KABQ 271500 AAA
TAFROW
TAF AMD
KROW 271524Z 2715/2812 36010KT P6SM SCT100
      TEMPO 2715/2717 BKN020
     FM271800 03010KT P6SM FEW120
     FM280200 24005KT P6SM FEW040=

USA.gov is the U.S. government's official web portal to all federal, state and local government web resources and services.